createdAt,value
2022-08-04T00:00:54.325Z,69.72
2022-08-04T00:01:54.355Z,68.93
2022-08-04T00:02:54.256Z,70.62
2022-08-04T00:03:55.648Z,70.25
2022-08-04T00:04:54.184Z,69.96
2022-08-04T00:05:54.154Z,69.66
2022-08-04T00:06:54.114Z,70.45
2022-08-04T00:07:54.096Z,69.26
2022-08-04T00:08:55.716Z,70.06
2022-08-04T00:09:54.011Z,69.82
2022-08-04T00:10:53.973Z,69.96
2022-08-04T00:11:53.941Z,69.23
2022-08-04T00:12:53.915Z,68.53
2022-08-04T00:14:02.478Z,69.43
2022-08-04T00:14:53.836Z,67.94
2022-08-04T00:15:53.800Z,68.23
2022-08-04T00:16:53.767Z,68.13
2022-08-04T00:17:53.735Z,67.64
2022-08-04T00:18:53.709Z,68.60
2022-08-04T00:19:53.662Z,68.30
2022-08-04T00:20:53.640Z,67.83
2022-08-04T00:21:53.594Z,67.83
2022-08-04T00:22:53.558Z,67.01
2022-08-04T00:24:10.702Z,68.50
2022-08-04T00:24:53.503Z,68.13
2022-08-04T00:25:53.463Z,67.80
2022-08-04T00:26:53.419Z,66.61
2022-08-04T00:27:53.385Z,67.60
2022-08-04T00:28:53.354Z,67.90
2022-08-04T00:29:53.345Z,68.10
2022-08-04T00:30:53.361Z,68.10
2022-08-04T00:31:55.889Z,67.50
2022-08-04T00:32:53.211Z,67.80
2022-08-04T00:33:53.177Z,67.60
2022-08-04T00:34:53.145Z,67.31
2022-08-04T00:35:53.116Z,67.41
2022-08-04T00:36:53.098Z,67.01
2022-08-04T00:37:53.053Z,66.61
2022-08-04T00:38:53.037Z,66.31
2022-08-04T00:39:52.970Z,68.00
2022-08-04T00:40:52.942Z,67.71
2022-08-04T00:41:56.326Z,66.71
2022-08-04T00:42:59.143Z,66.81
2022-08-04T00:43:52.831Z,67.60
2022-08-04T00:44:52.795Z,67.31
2022-08-04T00:46:15.178Z,67.80
2022-08-04T00:46:52.735Z,67.60
2022-08-04T00:47:52.701Z,67.90
2022-08-04T00:48:52.658Z,68.04
2022-08-04T00:49:52.625Z,67.71
2022-08-04T00:50:52.588Z,67.54
2022-08-04T00:52:32.204Z,67.83
2022-08-04T00:52:52.543Z,68.40
2022-08-04T00:53:52.486Z,67.64
2022-08-04T00:54:52.450Z,67.83
2022-08-04T00:55:52.421Z,67.90
2022-08-04T00:56:52.381Z,66.81
2022-08-04T00:57:52.358Z,67.11
2022-08-04T00:58:52.322Z,67.01
2022-08-04T00:59:52.280Z,66.71
2022-08-04T01:00:52.244Z,66.68
2022-08-04T01:01:52.238Z,66.68
2022-08-04T01:02:52.172Z,65.99
2022-08-04T01:03:52.149Z,65.95
2022-08-04T01:04:52.105Z,65.09
2022-08-04T01:05:52.072Z,66.65
2022-08-04T01:06:56.344Z,65.26
2022-08-04T01:07:52.001Z,66.25
2022-08-04T01:08:51.973Z,65.89
2022-08-04T01:09:51.935Z,65.59
2022-08-04T01:10:51.896Z,66.38
2022-08-04T01:11:56.721Z,66.48
2022-08-04T01:12:51.827Z,67.87
2022-08-04T01:13:51.801Z,66.88
2022-08-04T01:14:51.767Z,66.08
2022-08-04T01:15:59.990Z,67.41
2022-08-04T01:16:51.690Z,66.88
2022-08-04T01:17:51.671Z,66.91
2022-08-04T01:18:51.617Z,66.78
2022-08-04T01:19:51.587Z,67.11
2022-08-04T01:20:51.550Z,67.57
2022-08-04T01:21:51.521Z,67.38
2022-08-04T01:22:51.495Z,67.90
2022-08-04T01:23:51.446Z,68.23
2022-08-04T01:24:51.412Z,67.83
2022-08-04T01:25:51.379Z,68.43
2022-08-04T01:26:53.744Z,68.53
2022-08-04T01:27:51.312Z,68.33
2022-08-04T01:28:51.299Z,68.63
2022-08-04T01:29:51.242Z,67.60
2022-08-04T01:30:51.209Z,67.60
2022-08-04T01:31:51.197Z,67.90
2022-08-04T01:32:51.139Z,67.71
2022-08-04T01:33:58.512Z,68.60
2022-08-04T01:34:51.083Z,68.23
2022-08-04T01:35:51.032Z,68.63
2022-08-04T01:36:51.024Z,68.53
2022-08-04T01:37:50.982Z,68.63
2022-08-04T01:38:50.954Z,67.83
2022-08-04T01:39:50.900Z,69.03
2022-08-04T01:40:50.868Z,68.53
2022-08-04T01:41:58.523Z,69.72
2022-08-04T01:42:50.787Z,69.62
2022-08-04T01:43:50.754Z,68.83
2022-08-04T01:44:50.720Z,68.80
2022-08-04T01:45:50.691Z,69.53
2022-08-04T01:46:50.659Z,68.53
2022-08-04T01:47:50.618Z,69.13
2022-08-04T01:48:50.580Z,69.32
2022-08-04T01:49:50.568Z,68.76
2022-08-04T01:50:52.833Z,69.56
2022-08-04T01:51:50.478Z,70.36
2022-08-04T01:52:51.363Z,70.45
2022-08-04T01:53:50.423Z,69.66
2022-08-04T01:54:50.371Z,69.76
2022-08-04T01:55:54.307Z,72.04
2022-08-04T01:56:50.356Z,71.64
2022-08-04T01:57:50.273Z,71.38
2022-08-04T01:58:50.243Z,70.19
2022-08-04T01:59:50.200Z,70.19
2022-08-04T02:00:54.570Z,70.39
2022-08-04T02:01:50.257Z,70.89
2022-08-04T02:02:50.170Z,70.68
2022-08-04T02:04:18.639Z,71.61
2022-08-04T02:04:50.024Z,71.42
2022-08-04T02:06:02.353Z,73.21
2022-08-04T02:06:49.957Z,72.05
2022-08-04T02:07:49.920Z,73.04
2022-08-04T02:08:49.895Z,74.24
2022-08-04T02:09:54.787Z,74.97
2022-08-04T02:10:49.816Z,75.07
2022-08-04T02:11:49.781Z,76.40
2022-08-04T02:12:49.747Z,76.54
2022-08-04T02:13:49.730Z,76.93
2022-08-04T02:14:49.687Z,77.63
2022-08-04T02:15:49.648Z,77.57
2022-08-04T02:16:52.336Z,77.77
2022-08-04T02:17:49.570Z,78.67
2022-08-04T02:18:49.536Z,79.00
2022-08-04T02:19:49.507Z,78.30
2022-08-04T02:20:49.484Z,78.30
2022-08-04T02:21:49.432Z,79.24
2022-08-04T02:22:49.399Z,78.64
2022-08-04T02:23:49.361Z,79.64
2022-08-04T02:24:49.333Z,79.84
2022-08-04T02:25:57.365Z,79.14
2022-08-04T02:26:49.259Z,79.34
2022-08-04T02:28:00.317Z,81.24
2022-08-04T02:28:49.186Z,80.04
2022-08-04T02:29:49.152Z,81.07
2022-08-04T02:30:49.115Z,80.68
2022-08-04T02:31:49.090Z,81.18
2022-08-04T02:32:49.049Z,82.11
2022-08-04T02:33:49.011Z,81.21
2022-08-04T02:34:48.976Z,81.61
2022-08-04T02:35:48.954Z,82.51
2022-08-04T02:36:48.904Z,82.75
2022-08-04T02:37:48.869Z,82.05
2022-08-04T02:38:48.835Z,81.65
2022-08-04T02:39:49.631Z,82.85
2022-08-04T02:40:48.763Z,83.09
2022-08-04T02:41:48.736Z,84.55
2022-08-04T02:42:48.691Z,84.29
2022-08-04T02:43:51.958Z,83.99
2022-08-04T02:44:48.622Z,84.49
2022-08-04T02:45:48.585Z,85.09
2022-08-04T02:46:48.576Z,85.39
2022-08-04T02:48:25.217Z,85.63
2022-08-04T02:48:48.481Z,85.23
2022-08-04T02:49:48.445Z,85.73
2022-08-04T02:50:48.409Z,85.87
2022-08-04T02:51:48.383Z,86.23
2022-08-04T02:52:48.367Z,86.57
2022-08-04T02:53:48.315Z,86.18
2022-08-04T02:54:48.267Z,86.98
2022-08-04T02:55:50.534Z,87.37
2022-08-04T02:56:48.200Z,87.77
2022-08-04T02:57:48.161Z,87.27
2022-08-04T02:58:48.148Z,88.68
2022-08-04T02:59:48.092Z,87.77
2022-08-04T03:00:48.101Z,88.12
2022-08-04T03:01:57.683Z,88.52
2022-08-04T03:02:47.984Z,88.12
2022-08-04T03:03:47.947Z,89.16
2022-08-04T03:04:47.937Z,89.36
2022-08-04T03:05:51.874Z,89.46
2022-08-04T03:06:47.841Z,90.16
2022-08-04T03:07:47.807Z,90.86
2022-08-04T03:08:47.769Z,90.46
2022-08-04T03:09:47.736Z,90.46
2022-08-04T03:10:47.707Z,89.96
2022-08-04T03:11:47.661Z,90.06
2022-08-04T03:12:47.628Z,90.46
2022-08-04T03:13:47.612Z,90.91
2022-08-04T03:14:47.569Z,90.61
2022-08-04T03:15:47.535Z,91.51
2022-08-04T03:16:47.483Z,91.31
2022-08-04T03:17:52.664Z,90.91
2022-08-04T03:18:47.416Z,90.81
2022-08-04T03:19:47.376Z,91.20
2022-08-04T03:20:47.352Z,90.61
2022-08-04T03:21:47.310Z,90.70
2022-08-04T03:23:11.699Z,90.81
2022-08-04T03:23:47.232Z,91.41
2022-08-04T03:24:47.197Z,91.71
2022-08-04T03:25:57.626Z,91.20
2022-08-04T03:26:47.139Z,91.11
2022-08-04T03:27:47.089Z,90.35
2022-08-04T03:28:47.063Z,90.55
2022-08-04T03:29:47.016Z,90.15
2022-08-04T03:30:46.981Z,89.75
2022-08-04T03:31:46.944Z,89.70
2022-08-04T03:32:46.912Z,90.81
2022-08-04T03:33:46.872Z,88.70
2022-08-04T03:34:46.857Z,88.20
2022-08-04T03:35:46.800Z,89.96
2022-08-04T03:36:46.767Z,88.76
2022-08-04T03:37:46.739Z,88.86
2022-08-04T03:38:55.014Z,88.46
2022-08-04T03:39:46.746Z,89.36
2022-08-04T03:40:46.636Z,89.06
2022-08-04T03:41:51.516Z,88.96
2022-08-04T03:42:46.552Z,88.56
2022-08-04T03:43:57.690Z,90.06
2022-08-04T03:44:46.478Z,90.46
2022-08-04T03:45:46.442Z,90.61
2022-08-04T03:46:46.428Z,90.50
2022-08-04T03:47:46.373Z,90.81
2022-08-04T03:48:46.336Z,91.11
2022-08-04T03:49:46.298Z,91.20
2022-08-04T03:50:46.266Z,91.81
2022-08-04T03:51:46.228Z,92.15
2022-08-04T03:52:47.281Z,92.01
2022-08-04T03:53:46.155Z,92.76
2022-08-04T03:54:46.120Z,92.35
2022-08-04T03:55:46.083Z,92.35
2022-08-04T03:56:46.058Z,92.85
2022-08-04T03:57:46.012Z,92.66
2022-08-04T03:58:45.986Z,93.76
2022-08-04T03:59:48.774Z,93.16
2022-08-04T04:00:45.904Z,93.46
2022-08-04T04:02:02.451Z,93.20
2022-08-04T04:02:45.864Z,93.00
2022-08-04T04:03:45.797Z,93.10
2022-08-04T04:04:45.786Z,93.50
2022-08-04T04:05:59.740Z,93.70
2022-08-04T04:06:51.419Z,92.90
2022-08-04T04:07:49.759Z,93.50
2022-08-04T04:08:46.577Z,93.70
2022-08-04T04:09:56.679Z,94.40
2022-08-04T04:10:45.554Z,93.65
2022-08-04T04:11:54.493Z,94.25
2022-08-04T04:12:45.471Z,93.80
2022-08-04T04:13:45.436Z,94.71
2022-08-04T04:14:45.400Z,94.31
2022-08-04T04:15:49.811Z,94.31
2022-08-04T04:16:45.340Z,93.80
2022-08-04T04:17:45.300Z,94.71
2022-08-04T04:18:45.537Z,93.90
2022-08-04T04:19:45.218Z,94.51
2022-08-04T04:20:45.184Z,94.60
2022-08-04T04:21:45.147Z,94.20
2022-08-04T04:22:45.125Z,94.10
2022-08-04T04:23:45.082Z,94.06
2022-08-04T04:24:45.038Z,94.16
2022-08-04T04:25:45.002Z,93.55
2022-08-04T04:26:44.966Z,93.76
2022-08-04T04:27:44.930Z,93.16
2022-08-04T04:28:46.983Z,93.11
2022-08-04T04:29:44.900Z,92.55
2022-08-04T04:30:44.824Z,93.11
2022-08-04T04:31:44.783Z,92.21
2022-08-04T04:32:44.751Z,92.21
2022-08-04T04:33:44.715Z,92.41
2022-08-04T04:34:46.446Z,93.21
2022-08-04T04:35:44.641Z,92.51
2022-08-04T04:36:44.610Z,92.81
2022-08-04T04:37:48.116Z,91.86
2022-08-04T04:38:44.532Z,91.97
2022-08-04T04:39:44.496Z,91.86
2022-08-04T04:40:44.473Z,91.36
2022-08-04T04:41:44.426Z,91.16
2022-08-04T04:42:44.393Z,91.77
2022-08-04T04:43:51.005Z,91.66
2022-08-04T04:44:44.316Z,91.27
2022-08-04T04:45:44.283Z,92.47
2022-08-04T04:46:44.258Z,92.07
2022-08-04T04:48:09.790Z,91.66
2022-08-04T04:48:44.174Z,91.61
2022-08-04T04:49:44.136Z,91.16
2022-08-04T04:50:44.107Z,91.77
2022-08-04T04:51:44.069Z,91.66
2022-08-04T04:52:44.040Z,91.16
2022-08-04T04:53:43.991Z,91.06
2022-08-04T04:54:43.960Z,91.12
2022-08-04T04:55:47.946Z,90.82
2022-08-04T04:56:43.887Z,90.92
2022-08-04T04:57:54.175Z,91.32
2022-08-04T04:58:43.826Z,90.42
2022-08-04T04:59:43.777Z,90.32
2022-08-04T05:00:43.746Z,90.98
2022-08-04T05:01:43.704Z,90.48
2022-08-04T05:02:43.673Z,90.48
2022-08-04T05:03:43.633Z,90.72
2022-08-04T05:04:43.612Z,90.42
2022-08-04T05:05:43.572Z,89.82
2022-08-04T05:06:43.528Z,90.28
2022-08-04T05:07:43.491Z,90.48
2022-08-04T05:08:46.864Z,90.37
2022-08-04T05:09:43.451Z,90.44
2022-08-04T05:10:43.388Z,90.13
2022-08-04T05:11:43.350Z,88.89
2022-08-04T05:14:32.440Z,88.10
2022-08-04T05:14:37.034Z,86.63
2022-08-04T05:14:43.243Z,84.25
2022-08-04T05:15:43.219Z,82.04
2022-08-04T05:16:43.169Z,79.73
2022-08-04T05:17:43.133Z,76.93
2022-08-04T05:18:43.097Z,73.25
2022-08-04T05:19:43.061Z,71.17
2022-08-04T05:20:43.032Z,69.42
2022-08-04T05:21:43.001Z,68.27
2022-08-04T05:22:42.957Z,67.68
2022-08-04T05:23:42.921Z,66.82
2022-08-04T05:24:42.889Z,65.61
2022-08-04T05:25:50.082Z,64.56
2022-08-04T05:26:42.830Z,64.26
2022-08-04T05:27:42.783Z,63.54
2022-08-04T05:28:42.755Z,63.12
2022-08-04T05:29:42.717Z,62.49
2022-08-04T05:30:42.682Z,61.48
2022-08-04T05:31:42.656Z,60.69
2022-08-04T05:32:42.617Z,61.38
2022-08-04T05:33:42.950Z,60.89
2022-08-04T05:34:42.555Z,59.65
2022-08-04T05:36:15.996Z,60.96
2022-08-04T05:36:42.697Z,60.44
2022-08-04T05:37:42.447Z,61.74
2022-08-04T05:38:42.424Z,61.05
2022-08-04T05:39:42.401Z,60.80
2022-08-04T05:40:42.350Z,59.20
2022-08-04T05:41:46.125Z,58.68
2022-08-04T05:42:42.295Z,57.64
2022-08-04T05:43:42.249Z,57.81
2022-08-04T05:44:42.220Z,57.42
2022-08-04T05:45:42.184Z,57.20
2022-08-04T05:46:42.156Z,57.39
2022-08-04T05:47:42.135Z,56.71
2022-08-04T05:48:42.091Z,56.81
2022-08-04T05:49:42.055Z,56.71
2022-08-04T05:50:42.023Z,57.81
2022-08-04T05:51:41.991Z,56.63
2022-08-04T05:52:41.960Z,57.54
2022-08-04T05:53:41.939Z,55.44
2022-08-04T05:54:41.903Z,58.81
2022-08-04T05:55:48.982Z,57.86
2022-08-04T05:56:41.833Z,57.80
2022-08-04T05:57:41.812Z,56.79
2022-08-04T05:58:41.779Z,55.10
2022-08-04T05:59:41.734Z,55.56
2022-08-04T06:00:41.871Z,54.89
2022-08-04T06:01:56.346Z,53.59
2022-08-04T06:02:41.639Z,52.15
2022-08-04T06:03:41.617Z,51.31
2022-08-04T06:04:41.577Z,49.63
2022-08-04T06:05:41.553Z,48.12
2022-08-04T06:06:41.532Z,47.30
2022-08-04T06:08:12.804Z,47.90
2022-08-04T06:08:41.451Z,46.83
2022-08-04T06:09:41.421Z,47.13
2022-08-04T06:10:41.385Z,48.78
2022-08-04T06:12:00.730Z,48.97
2022-08-04T06:12:41.353Z,48.54
2022-08-04T06:13:48.285Z,49.54
2022-08-04T06:14:41.262Z,50.39
2022-08-04T06:15:44.469Z,51.64
2022-08-04T06:16:41.200Z,51.61
2022-08-04T06:19:58.440Z,50.90
2022-08-04T06:20:01.890Z,49.22
2022-08-04T06:20:02.032Z,50.61
2022-08-04T06:20:41.077Z,53.10
2022-08-04T06:21:41.046Z,50.29
2022-08-04T06:22:41.011Z,47.97
2022-08-04T06:23:53.715Z,48.24
2022-08-04T06:24:40.963Z,48.80
2022-08-04T06:25:40.921Z,47.08
2022-08-04T06:26:40.889Z,45.45
2022-08-04T06:27:40.860Z,47.20
2022-08-04T06:28:40.827Z,45.89
2022-08-04T06:29:40.811Z,45.65
2022-08-04T06:30:40.763Z,42.77
2022-08-04T06:32:27.915Z,43.35
2022-08-04T06:32:42.017Z,42.46
2022-08-04T06:33:54.473Z,44.30
2022-08-04T06:34:40.641Z,41.83
2022-08-04T06:35:40.637Z,41.50
2022-08-04T06:36:40.584Z,42.16
2022-08-04T06:37:42.780Z,41.36
2022-08-04T06:38:40.535Z,40.47
2022-08-04T06:39:40.573Z,39.99
2022-08-04T06:40:40.466Z,41.16
2022-08-04T06:42:17.047Z,42.77
2022-08-04T06:42:40.408Z,44.85
2022-08-04T06:43:42.881Z,44.38
2022-08-04T06:44:40.354Z,44.87
2022-08-04T06:45:40.323Z,44.82
2022-08-04T06:46:40.283Z,46.01
2022-08-04T06:47:40.262Z,46.64
2022-08-04T06:48:40.224Z,47.56
2022-08-04T06:49:55.122Z,48.10
2022-08-04T06:51:28.021Z,49.29
2022-08-04T06:51:48.920Z,50.32
2022-08-04T06:52:40.105Z,49.93
2022-08-04T06:53:40.077Z,46.20
2022-08-04T06:54:40.043Z,43.44
2022-08-04T06:55:40.014Z,42.30
2022-08-04T06:56:39.997Z,42.77
2022-08-04T06:57:39.956Z,42.63
2022-08-04T06:58:39.924Z,41.91
2022-08-04T06:59:39.896Z,40.81
2022-08-04T07:00:39.864Z,40.09
2022-08-04T07:01:39.878Z,39.20
2022-08-04T07:02:39.817Z,38.21
2022-08-04T07:03:39.775Z,38.51
2022-08-04T07:04:39.744Z,37.81
2022-08-04T07:05:39.727Z,36.93
2022-08-04T07:06:39.685Z,37.96
2022-08-04T07:07:57.362Z,37.56
2022-08-04T07:08:39.638Z,38.35
2022-08-04T07:09:39.597Z,37.43
2022-08-04T07:10:39.567Z,36.44
2022-08-04T07:11:44.699Z,37.17
2022-08-04T07:12:39.508Z,38.43
2022-08-04T07:13:44.611Z,38.14
2022-08-04T07:14:39.451Z,37.87
2022-08-04T07:15:39.424Z,37.42
2022-08-04T07:16:39.588Z,38.62
2022-08-04T07:17:39.374Z,41.49
2022-08-04T07:18:39.333Z,40.13
2022-08-04T07:19:39.321Z,41.96
2022-08-04T07:20:39.276Z,44.74
2022-08-04T07:21:39.250Z,42.36
2022-08-04T07:22:39.220Z,42.57
2022-08-04T07:23:39.194Z,42.48
2022-08-04T07:24:41.062Z,41.12
2022-08-04T07:25:58.481Z,40.50
2022-08-04T07:26:39.107Z,39.51
2022-08-04T07:27:48.720Z,41.04
2022-08-04T07:28:39.050Z,40.34
2022-08-04T07:29:39.026Z,40.23
2022-08-04T07:30:39.001Z,38.87
2022-08-04T07:31:38.978Z,40.52
2022-08-04T07:32:38.935Z,41.70
2022-08-04T07:33:38.906Z,40.81
2022-08-04T07:34:38.887Z,42.07
2022-08-04T07:36:05.545Z,40.69
2022-08-04T07:36:50.619Z,42.61
2022-08-04T07:37:39.909Z,43.40
2022-08-04T07:38:51.024Z,42.79
2022-08-04T07:39:47.935Z,41.10
2022-08-04T07:40:38.702Z,39.61
2022-08-04T07:41:38.792Z,40.28
2022-08-04T07:42:38.659Z,41.89
2022-08-04T07:43:38.616Z,43.04
2022-08-04T07:44:38.587Z,40.28
2022-08-04T07:45:38.560Z,42.55
2022-08-04T07:46:38.531Z,41.20
2022-08-04T07:47:38.513Z,41.80
2022-08-04T07:48:38.473Z,40.67
2022-08-04T07:49:57.085Z,40.25
2022-08-04T07:50:38.416Z,38.76
2022-08-04T07:51:38.389Z,38.95
2022-08-04T07:52:40.022Z,38.91
2022-08-04T07:53:55.559Z,37.63
2022-08-04T07:54:38.306Z,39.01
2022-08-04T07:55:38.277Z,37.65
2022-08-04T07:56:38.250Z,38.33
2022-08-04T07:57:41.160Z,40.83
2022-08-04T07:58:38.205Z,40.46
2022-08-04T07:59:38.187Z,40.53
2022-08-04T08:00:38.138Z,40.61
2022-08-04T08:01:38.109Z,39.16
2022-08-04T08:02:38.102Z,39.94
2022-08-04T08:03:38.129Z,38.95
2022-08-04T08:04:38.027Z,39.03
2022-08-04T08:06:17.722Z,38.31
2022-08-04T08:06:42.716Z,40.86
2022-08-04T08:07:37.957Z,42.54
2022-08-04T08:08:37.920Z,43.75
2022-08-04T08:09:37.892Z,43.44
2022-08-04T08:10:37.862Z,41.63
2022-08-04T08:12:38.656Z,42.17
2022-08-04T08:12:51.284Z,41.08
2022-08-04T08:13:37.795Z,40.86
2022-08-04T08:14:37.776Z,42.30
2022-08-04T08:15:37.725Z,43.45
2022-08-04T08:16:37.698Z,41.02
2022-08-04T08:17:58.322Z,42.25
2022-08-04T08:18:37.641Z,44.26
2022-08-04T08:19:37.614Z,45.23
2022-08-04T08:20:37.611Z,43.73
2022-08-04T08:21:58.657Z,46.14
2022-08-04T08:22:37.530Z,42.86
2022-08-04T08:23:37.507Z,41.49
2022-08-04T08:24:37.481Z,41.35
2022-08-04T08:25:46.256Z,40.26
2022-08-04T08:26:37.423Z,41.93
2022-08-04T08:27:37.398Z,41.86
2022-08-04T08:28:37.371Z,41.08
2022-08-04T08:29:37.347Z,41.47
2022-08-04T08:30:37.318Z,41.45
2022-08-04T08:31:56.256Z,43.45
2022-08-04T08:32:37.264Z,42.07
2022-08-04T08:33:37.242Z,43.40
2022-08-04T08:34:37.211Z,43.54
2022-08-04T08:35:39.648Z,42.24
2022-08-04T08:36:37.159Z,39.78
2022-08-04T08:37:41.942Z,40.73
2022-08-04T08:38:37.120Z,39.84
2022-08-04T08:39:37.116Z,39.78
2022-08-04T08:40:40.858Z,39.80
2022-08-04T08:41:37.031Z,41.04
2022-08-04T08:42:37.004Z,40.52
2022-08-04T08:44:04.639Z,38.25
2022-08-04T08:44:37.777Z,36.40
2022-08-04T08:45:36.931Z,40.38
2022-08-04T08:46:48.976Z,39.90
2022-08-04T08:47:58.446Z,40.67
2022-08-04T08:48:36.855Z,40.69
2022-08-04T08:50:02.049Z,44.33
2022-08-04T08:50:36.808Z,44.48
2022-08-04T08:51:36.782Z,44.15
2022-08-04T08:53:00.535Z,43.33
2022-08-04T08:53:36.721Z,40.65
2022-08-04T08:54:36.697Z,40.23
2022-08-04T08:55:36.668Z,41.31
2022-08-04T08:56:36.653Z,41.08
2022-08-04T08:57:37.307Z,39.70
2022-08-04T08:58:36.593Z,38.81
2022-08-04T08:59:36.572Z,40.65
2022-08-04T09:00:36.541Z,40.28
2022-08-04T09:01:36.633Z,39.86
2022-08-04T09:02:36.490Z,37.70
2022-08-04T09:03:36.467Z,37.29
2022-08-04T09:04:36.440Z,36.99
2022-08-04T09:05:36.417Z,40.20
2022-08-04T09:06:36.389Z,38.93
2022-08-04T09:07:36.371Z,35.86
2022-08-04T09:08:36.342Z,37.58
2022-08-04T09:09:36.319Z,39.97
2022-08-04T09:10:36.295Z,41.78
2022-08-04T09:11:36.275Z,43.47
2022-08-04T09:12:36.260Z,41.24
2022-08-04T09:13:36.251Z,43.95
2022-08-04T09:14:36.200Z,43.08
2022-08-04T09:15:36.176Z,42.13
2022-08-04T09:16:36.153Z,43.46
2022-08-04T09:17:36.132Z,44.78
2022-08-04T09:18:36.126Z,45.12
2022-08-04T09:19:38.142Z,41.88
2022-08-04T09:20:36.052Z,41.64
2022-08-04T09:21:36.039Z,42.35
2022-08-04T09:22:36.028Z,41.19
2022-08-04T09:23:35.993Z,39.62
2022-08-04T09:24:37.204Z,40.83
2022-08-04T09:25:35.933Z,40.53
2022-08-04T09:26:35.906Z,39.78
2022-08-04T09:27:35.882Z,40.71
2022-08-04T09:28:53.562Z,41.88
2022-08-04T09:29:35.835Z,42.38
2022-08-04T09:30:35.817Z,41.10
2022-08-04T09:31:49.079Z,42.32
2022-08-04T09:32:35.760Z,41.86
2022-08-04T09:33:44.568Z,43.89
2022-08-04T09:34:35.709Z,42.36
2022-08-04T09:35:35.688Z,42.36
2022-08-04T09:36:35.676Z,42.67
2022-08-04T09:37:46.414Z,43.88
2022-08-04T09:38:35.612Z,41.86
2022-08-04T09:39:35.659Z,43.07
2022-08-04T09:40:53.565Z,44.60
2022-08-04T09:41:49.414Z,41.47
2022-08-04T09:42:35.523Z,41.92
2022-08-04T09:43:58.805Z,44.37
2022-08-04T09:44:50.009Z,40.56
2022-08-04T09:45:43.432Z,40.83
2022-08-04T09:46:35.403Z,41.72
2022-08-04T09:47:39.921Z,40.26
2022-08-04T09:48:35.363Z,40.69
2022-08-04T09:49:35.330Z,42.14
2022-08-04T09:50:35.302Z,42.40
2022-08-04T09:51:57.206Z,41.19
2022-08-04T09:52:35.253Z,39.28
2022-08-04T09:53:35.242Z,39.57
2022-08-04T09:54:35.205Z,40.78
2022-08-04T09:55:35.180Z,38.78
2022-08-04T09:56:35.178Z,40.44
2022-08-04T09:57:35.131Z,40.15
2022-08-04T09:58:35.105Z,38.89
2022-08-04T09:59:35.091Z,40.13
2022-08-04T10:00:40.996Z,40.25
2022-08-04T10:01:35.034Z,39.74
2022-08-04T10:02:35.073Z,38.79
2022-08-04T10:03:35.185Z,40.28
2022-08-04T10:04:34.989Z,39.94
2022-08-04T10:05:34.937Z,40.46
2022-08-04T10:06:34.926Z,41.08
2022-08-04T10:07:34.904Z,44.09
2022-08-04T10:08:34.865Z,42.95
2022-08-04T10:09:34.853Z,42.29
2022-08-04T10:10:34.818Z,43.55
2022-08-04T10:11:34.791Z,42.60
2022-08-04T10:12:34.764Z,44.43
2022-08-04T10:13:34.750Z,43.36
2022-08-04T10:14:34.719Z,44.04
2022-08-04T10:15:34.686Z,43.10
2022-08-04T10:16:34.661Z,41.41
2022-08-04T10:17:34.636Z,43.12
2022-08-04T10:18:34.621Z,41.62
2022-08-04T10:19:34.587Z,40.94
2022-08-04T10:20:44.653Z,41.33
2022-08-04T10:21:34.533Z,42.18
2022-08-04T10:22:49.648Z,39.95
2022-08-04T10:23:55.358Z,40.56
2022-08-04T10:24:34.455Z,40.40
2022-08-04T10:25:37.436Z,41.78
2022-08-04T10:26:34.412Z,40.48
2022-08-04T10:27:34.379Z,43.41
2022-08-04T10:28:34.351Z,43.02
2022-08-04T10:29:34.327Z,43.90
2022-08-04T10:30:34.298Z,42.52
2022-08-04T10:31:34.317Z,43.95
2022-08-04T10:32:34.258Z,42.29
2022-08-04T10:33:34.224Z,45.04
2022-08-04T10:34:34.194Z,44.05
2022-08-04T10:35:34.169Z,43.98
2022-08-04T10:36:34.142Z,45.24
2022-08-04T10:37:59.383Z,44.02
2022-08-04T10:38:34.090Z,44.82
2022-08-04T10:39:42.683Z,45.50
2022-08-04T10:40:34.039Z,45.11
2022-08-04T10:41:34.008Z,45.04
2022-08-04T10:42:33.983Z,47.25
2022-08-04T10:43:33.965Z,44.60
2022-08-04T10:44:41.826Z,44.04
2022-08-04T10:45:33.898Z,46.11
2022-08-04T10:46:33.872Z,43.65
2022-08-04T10:47:33.843Z,44.99
2022-08-04T10:48:34.605Z,45.87
2022-08-04T10:49:33.787Z,42.21
2022-08-04T10:50:33.761Z,41.72
2022-08-04T10:51:57.885Z,41.63
2022-08-04T10:52:33.717Z,41.51
2022-08-04T10:53:33.711Z,41.12
2022-08-04T10:54:33.661Z,42.07
2022-08-04T10:56:06.814Z,40.79
2022-08-04T10:56:33.603Z,41.49
2022-08-04T10:57:33.582Z,38.96
2022-08-04T10:58:48.673Z,41.58
2022-08-04T10:59:33.517Z,39.43
2022-08-04T11:00:33.503Z,41.16
2022-08-04T11:01:50.560Z,40.28
2022-08-04T11:02:33.496Z,41.24
2022-08-04T11:03:33.416Z,40.56
2022-08-04T11:04:33.386Z,40.75
2022-08-04T11:05:33.378Z,40.63
2022-08-04T11:06:33.336Z,40.13
2022-08-04T11:07:33.311Z,40.20
2022-08-04T11:08:33.368Z,40.23
2022-08-04T11:09:33.259Z,37.55
2022-08-04T11:10:33.234Z,37.96
2022-08-04T11:11:57.161Z,39.80
2022-08-04T11:12:33.185Z,39.24
2022-08-04T11:13:33.222Z,39.76
2022-08-04T11:14:33.135Z,38.71
2022-08-04T11:15:33.111Z,40.56
2022-08-04T11:16:33.086Z,40.46
2022-08-04T11:17:33.069Z,40.58
2022-08-04T11:18:33.034Z,40.58
2022-08-04T11:19:42.794Z,40.56
2022-08-04T11:20:35.890Z,40.56
2022-08-04T11:21:32.966Z,40.92
2022-08-04T11:22:32.932Z,40.25
2022-08-04T11:23:32.918Z,40.64
2022-08-04T11:24:32.881Z,41.72
2022-08-04T11:25:32.963Z,40.77
2022-08-04T11:26:32.841Z,42.54
2022-08-04T11:27:32.804Z,44.60
2022-08-04T11:28:32.856Z,44.21
2022-08-04T11:29:33.364Z,45.28
2022-08-04T11:30:32.724Z,44.89
2022-08-04T11:31:32.705Z,45.87
2022-08-04T11:32:32.676Z,44.78
2022-08-04T11:33:33.369Z,43.92
2022-08-04T11:34:32.616Z,44.31
2022-08-04T11:35:32.620Z,44.14
2022-08-04T11:36:32.560Z,43.55
2022-08-04T11:37:32.536Z,45.14
2022-08-04T11:38:32.544Z,43.95
2022-08-04T11:39:33.015Z,45.11
2022-08-04T11:40:32.450Z,45.01
2022-08-04T11:41:32.421Z,47.05
2022-08-04T11:42:32.395Z,46.47
2022-08-04T11:43:56.587Z,44.55
2022-08-04T11:44:32.338Z,46.51
2022-08-04T11:45:32.322Z,47.61
2022-08-04T11:46:32.284Z,48.71
2022-08-04T11:47:32.265Z,49.97
2022-08-04T11:48:32.229Z,48.32
2022-08-04T11:49:32.203Z,48.12
2022-08-04T11:50:32.175Z,48.41
2022-08-04T11:51:32.138Z,47.85
2022-08-04T11:52:32.123Z,48.07
2022-08-04T11:53:36.657Z,48.29
2022-08-04T11:54:32.051Z,50.34
2022-08-04T11:55:32.020Z,50.07
2022-08-04T11:56:36.258Z,50.56
2022-08-04T11:57:35.645Z,50.78
2022-08-04T11:58:31.946Z,52.05
2022-08-04T11:59:31.906Z,52.47
2022-08-04T12:00:31.878Z,51.10
2022-08-04T12:01:31.849Z,53.27
2022-08-04T12:02:31.894Z,51.90
2022-08-04T12:03:31.789Z,53.20
2022-08-04T12:04:31.768Z,54.99
2022-08-04T12:05:36.588Z,54.50
2022-08-04T12:06:31.696Z,54.89
2022-08-04T12:07:33.032Z,54.60
2022-08-04T12:08:31.635Z,55.80
2022-08-04T12:09:31.603Z,55.21
2022-08-04T12:10:41.000Z,54.91
2022-08-04T12:11:31.556Z,54.33
2022-08-04T12:12:31.512Z,52.76
2022-08-04T12:13:31.491Z,52.86
2022-08-04T12:14:31.462Z,54.82
2022-08-04T12:15:31.419Z,53.84
2022-08-04T12:16:31.400Z,53.13
2022-08-04T12:17:52.049Z,52.54
2022-08-04T12:18:31.333Z,51.95
2022-08-04T12:19:56.087Z,51.86
2022-08-04T12:20:31.808Z,52.51
2022-08-04T12:21:31.433Z,52.59
2022-08-04T12:22:32.109Z,51.98
2022-08-04T12:23:31.184Z,52.93
2022-08-04T12:24:31.156Z,52.22
2022-08-04T12:25:31.118Z,50.53
2022-08-04T12:26:31.086Z,49.46
2022-08-04T12:27:31.065Z,51.12
2022-08-04T12:28:46.458Z,50.34
2022-08-04T12:29:30.994Z,48.97
2022-08-04T12:30:58.022Z,48.80
2022-08-04T12:31:30.935Z,50.24
2022-08-04T12:32:30.909Z,50.14
2022-08-04T12:34:02.705Z,51.21
2022-08-04T12:34:30.865Z,48.68
2022-08-04T12:35:30.818Z,50.95
2022-08-04T12:36:30.797Z,50.26
2022-08-04T12:37:30.766Z,52.19
2022-08-04T12:38:30.731Z,51.12
2022-08-04T12:39:30.803Z,50.02
2022-08-04T12:40:31.298Z,50.99
2022-08-04T12:41:30.645Z,51.75
2022-08-04T12:42:30.615Z,48.83
2022-08-04T12:43:30.591Z,50.82
2022-08-04T12:44:37.693Z,49.83
2022-08-04T12:45:30.523Z,49.44
2022-08-04T12:46:30.508Z,48.66
2022-08-04T12:47:30.492Z,48.56
2022-08-04T12:48:30.440Z,49.63
2022-08-04T12:49:30.418Z,49.27
2022-08-04T12:50:30.387Z,49.85
2022-08-04T12:52:06.126Z,50.14
2022-08-04T12:53:32.121Z,51.24